sensor_id;sensor_type;location;lat;lon;timestamp;P1;durP1;ratioP1;P2;durP2;ratioP2
8610;SDS011;4343;53.648;10.098;2023-07-02T00:00:25;2.00;;;1.90;;
8610;SDS011;4343;53.648;10.098;2023-07-02T00:02:51;2.85;;;2.22;;
8610;SDS011;4343;53.648;10.098;2023-07-02T00:05:17;1.92;;;1.83;;
8610;SDS011;4343;53.648;10.098;2023-07-02T00:07:43;4.82;;;1.92;;
8610;SDS011;4343;53.648;10.098;2023-07-02T00:10:08;2.28;;;1.70;;
8610;SDS011;4343;53.648;10.098;2023-07-02T00:12:35;2.22;;;2.08;;
8610;SDS011;4343;53.648;10.098;2023-07-02T00:15:01;2.65;;;1.85;;
8610;SDS011;4343;53.648;10.098;2023-07-02T00:17:27;1.88;;;1.77;;
8610;SDS011;4343;53.648;10.098;2023-07-02T00:19:53;2.35;;;1.65;;
8610;SDS011;4343;53.648;10.098;2023-07-02T00:22:18;4.63;;;2.13;;
8610;SDS011;4343;53.648;10.098;2023-07-02T00:24:44;3.22;;;2.38;;
8610;SDS011;4343;53.648;10.098;2023-07-02T00:27:10;2.72;;;2.05;;
8610;SDS011;4343;53.648;10.098;2023-07-02T00:29:35;3.17;;;2.00;;
8610;SDS011;4343;53.648;10.098;2023-07-02T00:32:01;3.25;;;2.03;;
8610;SDS011;4343;53.648;10.098;2023-07-02T00:34:26;2.25;;;2.15;;
8610;SDS011;4343;53.648;10.098;2023-07-02T00:36:52;4.97;;;2.13;;
8610;SDS011;4343;53.648;10.098;2023-07-02T00:39:17;2.72;;;2.08;;
8610;SDS011;4343;53.648;10.098;2023-07-02T00:41:43;3.13;;;2.35;;
8610;SDS011;4343;53.648;10.098;2023-07-02T00:44:11;2.28;;;2.08;;
8610;SDS011;4343;53.648;10.098;2023-07-02T00:46:37;3.10;;;2.10;;
8610;SDS011;4343;53.648;10.098;2023-07-02T00:49:04;2.90;;;2.42;;
8610;SDS011;4343;53.648;10.098;2023-07-02T00:51:30;2.03;;;1.88;;
8610;SDS011;4343;53.648;10.098;2023-07-02T00:53:57;2.80;;;2.25;;
8610;SDS011;4343;53.648;10.098;2023-07-02T00:56:24;3.42;;;2.30;;
8610;SDS011;4343;53.648;10.098;2023-07-02T00:58:51;2.10;;;2.00;;
8610;SDS011;4343;53.648;10.098;2023-07-02T01:01:24;3.35;;;2.25;;
8610;SDS011;4343;53.648;10.098;2023-07-02T01:06:34;2.38;;;2.15;;
8610;SDS011;4343;53.648;10.098;2023-07-02T01:09:02;3.40;;;2.40;;
8610;SDS011;4343;53.648;10.098;2023-07-02T01:11:30;4.78;;;2.40;;
8610;SDS011;4343;53.648;10.098;2023-07-02T01:14:15;5.75;;;2.80;;
8610;SDS011;4343;53.648;10.098;2023-07-02T01:16:46;2.97;;;2.22;;
8610;SDS011;4343;53.648;10.098;2023-07-02T01:19:19;6.35;;;2.65;;
8610;SDS011;4343;53.648;10.098;2023-07-02T01:21:50;3.97;;;2.92;;
8610;SDS011;4343;53.648;10.098;2023-07-02T01:24:16;2.72;;;2.25;;
8610;SDS011;4343;53.648;10.098;2023-07-02T01:26:42;4.00;;;2.38;;
8610;SDS011;4343;53.648;10.098;2023-07-02T01:29:20;2.80;;;2.60;;
8610;SDS011;4343;53.648;10.098;2023-07-02T01:31:46;3.40;;;2.40;;
8610;SDS011;4343;53.648;10.098;2023-07-02T01:34:12;3.42;;;2.30;;
8610;SDS011;4343;53.648;10.098;2023-07-02T01:36:38;7.13;;;2.70;;
8610;SDS011;4343;53.648;10.098;2023-07-02T01:39:04;3.97;;;2.42;;
8610;SDS011;4343;53.648;10.098;2023-07-02T01:41:33;9.45;;;3.63;;
8610;SDS011;4343;53.648;10.098;2023-07-02T01:44:01;3.35;;;3.05;;
8610;SDS011;4343;53.648;10.098;2023-07-02T01:46:27;3.53;;;2.65;;
8610;SDS011;4343;53.648;10.098;2023-07-02T01:48:53;2.47;;;2.30;;
8610;SDS011;4343;53.648;10.098;2023-07-02T01:51:18;5.00;;;2.78;;
8610;SDS011;4343;53.648;10.098;2023-07-02T01:53:44;3.67;;;2.70;;
8610;SDS011;4343;53.648;10.098;2023-07-02T01:56:09;3.25;;;2.92;;
8610;SDS011;4343;53.648;10.098;2023-07-02T01:58:35;3.50;;;2.97;;
8610;SDS011;4343;53.648;10.098;2023-07-02T02:01:00;2.83;;;2.38;;
8610;SDS011;4343;53.648;10.098;2023-07-02T02:03:25;6.13;;;2.83;;
8610;SDS011;4343;53.648;10.098;2023-07-02T02:05:51;4.03;;;2.78;;
8610;SDS011;4343;53.648;10.098;2023-07-02T02:08:17;5.72;;;2.90;;
8610;SDS011;4343;53.648;10.098;2023-07-02T02:10:42;3.72;;;2.92;;
8610;SDS011;4343;53.648;10.098;2023-07-02T02:13:08;2.88;;;2.60;;
8610;SDS011;4343;53.648;10.098;2023-07-02T02:15:33;4.30;;;3.35;;
8610;SDS011;4343;53.648;10.098;2023-07-02T02:17:59;3.30;;;3.00;;
8610;SDS011;4343;53.648;10.098;2023-07-02T02:20:24;3.63;;;3.38;;
8610;SDS011;4343;53.648;10.098;2023-07-02T02:22:50;3.63;;;3.33;;
8610;SDS011;4343;53.648;10.098;2023-07-02T02:25:15;7.82;;;3.47;;
8610;SDS011;4343;53.648;10.098;2023-07-02T02:27:41;3.65;;;3.35;;
8610;SDS011;4343;53.648;10.098;2023-07-02T02:30:08;4.47;;;3.38;;
8610;SDS011;4343;53.648;10.098;2023-07-02T02:32:34;4.75;;;3.13;;
8610;SDS011;4343;53.648;10.098;2023-07-02T02:34:59;4.65;;;3.45;;
8610;SDS011;4343;53.648;10.098;2023-07-02T02:37:25;4.43;;;3.60;;
8610;SDS011;4343;53.648;10.098;2023-07-02T02:39:50;6.13;;;3.67;;
8610;SDS011;4343;53.648;10.098;2023-07-02T02:42:16;4.22;;;3.25;;
8610;SDS011;4343;53.648;10.098;2023-07-02T02:44:41;3.63;;;3.13;;
8610;SDS011;4343;53.648;10.098;2023-07-02T02:47:07;4.88;;;3.30;;
8610;SDS011;4343;53.648;10.098;2023-07-02T02:49:32;4.70;;;3.05;;
8610;SDS011;4343;53.648;10.098;2023-07-02T02:51:58;4.07;;;3.20;;
8610;SDS011;4343;53.648;10.098;2023-07-02T02:54:23;3.13;;;2.92;;
8610;SDS011;4343;53.648;10.098;2023-07-02T02:56:49;4.15;;;2.90;;
8610;SDS011;4343;53.648;10.098;2023-07-02T02:59:14;4.25;;;2.92;;
8610;SDS011;4343;53.648;10.098;2023-07-02T03:01:40;3.70;;;3.40;;
8610;SDS011;4343;53.648;10.098;2023-07-02T03:04:05;3.80;;;3.42;;
8610;SDS011;4343;53.648;10.098;2023-07-02T03:06:33;5.97;;;3.58;;
8610;SDS011;4343;53.648;10.098;2023-07-02T03:08:58;7.38;;;3.08;;
8610;SDS011;4343;53.648;10.098;2023-07-02T03:11:24;6.13;;;2.90;;
8610;SDS011;4343;53.648;10.098;2023-07-02T03:13:49;5.22;;;3.47;;
8610;SDS011;4343;53.648;10.098;2023-07-02T03:16:15;4.30;;;3.90;;
8610;SDS011;4343;53.648;10.098;2023-07-02T03:18:40;4.30;;;3.10;;
8610;SDS011;4343;53.648;10.098;2023-07-02T03:21:06;5.20;;;2.97;;
8610;SDS011;4343;53.648;10.098;2023-07-02T03:23:32;9.63;;;4.50;;
8610;SDS011;4343;53.648;10.098;2023-07-02T03:25:57;6.18;;;3.30;;
8610;SDS011;4343;53.648;10.098;2023-07-02T03:28:23;6.55;;;3.58;;
8610;SDS011;4343;53.648;10.098;2023-07-02T03:30:48;7.15;;;3.80;;
8610;SDS011;4343;53.648;10.098;2023-07-02T03:33:14;5.03;;;3.72;;
8610;SDS011;4343;53.648;10.098;2023-07-02T03:35:39;4.30;;;3.88;;
8610;SDS011;4343;53.648;10.098;2023-07-02T03:38:05;3.92;;;3.22;;
8610;SDS011;4343;53.648;10.098;2023-07-02T03:40:31;5.70;;;4.05;;
8610;SDS011;4343;53.648;10.098;2023-07-02T03:42:57;5.00;;;3.95;;
8610;SDS011;4343;53.648;10.098;2023-07-02T03:45:22;4.47;;;3.83;;
8610;SDS011;4343;53.648;10.098;2023-07-02T03:47:48;3.97;;;3.30;;
8610;SDS011;4343;53.648;10.098;2023-07-02T03:50:13;3.85;;;3.55;;
8610;SDS011;4343;53.648;10.098;2023-07-02T03:52:39;4.20;;;3.67;;
8610;SDS011;4343;53.648;10.098;2023-07-02T03:55:04;5.10;;;3.63;;
8610;SDS011;4343;53.648;10.098;2023-07-02T03:57:30;6.40;;;4.43;;
8610;SDS011;4343;53.648;10.098;2023-07-02T03:59:56;5.13;;;3.50;;
8610;SDS011;4343;53.648;10.098;2023-07-02T04:02:21;6.68;;;4.07;;
8610;SDS011;4343;53.648;10.098;2023-07-02T04:04:47;4.72;;;4.13;;
8610;SDS011;4343;53.648;10.098;2023-07-02T04:07:12;7.38;;;4.00;;
8610;SDS011;4343;53.648;10.098;2023-07-02T04:09:38;6.03;;;4.03;;
8610;SDS011;4343;53.648;10.098;2023-07-02T04:12:04;11.60;;;5.22;;
8610;SDS011;4343;53.648;10.098;2023-07-02T04:14:30;5.40;;;3.92;;
8610;SDS011;4343;53.648;10.098;2023-07-02T04:16:55;5.75;;;4.32;;
8610;SDS011;4343;53.648;10.098;2023-07-02T04:20:42;10.27;;;4.45;;
8610;SDS011;4343;53.648;10.098;2023-07-02T04:23:07;6.85;;;4.55;;
8610;SDS011;4343;53.648;10.098;2023-07-02T04:25:33;8.02;;;4.32;;
8610;SDS011;4343;53.648;10.098;2023-07-02T04:27:59;9.45;;;4.85;;
8610;SDS011;4343;53.648;10.098;2023-07-02T04:30:24;7.55;;;4.38;;
8610;SDS011;4343;53.648;10.098;2023-07-02T04:32:50;9.77;;;4.65;;
8610;SDS011;4343;53.648;10.098;2023-07-02T04:35:17;8.10;;;4.97;;
8610;SDS011;4343;53.648;10.098;2023-07-02T04:37:43;9.00;;;4.75;;
8610;SDS011;4343;53.648;10.098;2023-07-02T04:40:08;8.80;;;4.80;;
8610;SDS011;4343;53.648;10.098;2023-07-02T04:42:37;6.57;;;4.53;;
8610;SDS011;4343;53.648;10.098;2023-07-02T04:45:06;8.80;;;5.30;;
8610;SDS011;4343;53.648;10.098;2023-07-02T04:47:33;10.02;;;4.90;;
8610;SDS011;4343;53.648;10.098;2023-07-02T04:50:01;7.47;;;5.00;;
8610;SDS011;4343;53.648;10.098;2023-07-02T04:52:27;8.48;;;5.50;;
8610;SDS011;4343;53.648;10.098;2023-07-02T04:54:53;9.35;;;5.45;;
8610;SDS011;4343;53.648;10.098;2023-07-02T04:57:18;8.25;;;4.75;;
8610;SDS011;4343;53.648;10.098;2023-07-02T04:59:44;13.27;;;5.63;;
8610;SDS011;4343;53.648;10.098;2023-07-02T05:02:10;11.73;;;5.88;;
8610;SDS011;4343;53.648;10.098;2023-07-02T05:04:36;6.45;;;4.75;;
8610;SDS011;4343;53.648;10.098;2023-07-02T05:07:04;6.78;;;4.78;;
8610;SDS011;4343;53.648;10.098;2023-07-02T05:09:30;10.25;;;5.05;;
8610;SDS011;4343;53.648;10.098;2023-07-02T05:11:56;8.05;;;5.47;;
8610;SDS011;4343;53.648;10.098;2023-07-02T05:14:22;9.55;;;5.35;;
8610;SDS011;4343;53.648;10.098;2023-07-02T05:16:47;7.13;;;4.97;;
8610;SDS011;4343;53.648;10.098;2023-07-02T05:19:13;9.75;;;5.75;;
8610;SDS011;4343;53.648;10.098;2023-07-02T05:21:39;10.18;;;6.10;;
8610;SDS011;4343;53.648;10.098;2023-07-02T05:24:05;10.20;;;5.72;;
8610;SDS011;4343;53.648;10.098;2023-07-02T05:26:30;9.60;;;5.45;;
8610;SDS011;4343;53.648;10.098;2023-07-02T05:28:56;8.55;;;5.82;;
8610;SDS011;4343;53.648;10.098;2023-07-02T05:31:21;8.05;;;5.05;;
8610;SDS011;4343;53.648;10.098;2023-07-02T05:33:47;9.05;;;5.38;;
8610;SDS011;4343;53.648;10.098;2023-07-02T05:36:12;8.38;;;5.25;;
8610;SDS011;4343;53.648;10.098;2023-07-02T05:38:38;14.50;;;6.22;;
8610;SDS011;4343;53.648;10.098;2023-07-02T05:41:03;9.60;;;5.93;;
8610;SDS011;4343;53.648;10.098;2023-07-02T05:43:29;16.10;;;7.07;;
8610;SDS011;4343;53.648;10.098;2023-07-02T05:45:57;15.77;;;6.35;;
8610;SDS011;4343;53.648;10.098;2023-07-02T05:48:25;14.05;;;6.25;;
8610;SDS011;4343;53.648;10.098;2023-07-02T05:50:51;10.90;;;6.13;;
8610;SDS011;4343;53.648;10.098;2023-07-02T05:53:17;9.18;;;5.95;;
8610;SDS011;4343;53.648;10.098;2023-07-02T05:55:42;16.17;;;6.75;;
8610;SDS011;4343;53.648;10.098;2023-07-02T05:58:08;11.82;;;6.65;;
8610;SDS011;4343;53.648;10.098;2023-07-02T06:00:33;13.23;;;7.07;;
8610;SDS011;4343;53.648;10.098;2023-07-02T06:02:59;12.38;;;6.70;;
8610;SDS011;4343;53.648;10.098;2023-07-02T06:05:25;11.50;;;7.13;;
8610;SDS011;4343;53.648;10.098;2023-07-02T06:07:50;12.73;;;7.57;;
8610;SDS011;4343;53.648;10.098;2023-07-02T06:10:16;14.45;;;7.40;;
8610;SDS011;4343;53.648;10.098;2023-07-02T06:12:42;18.02;;;7.15;;
8610;SDS011;4343;53.648;10.098;2023-07-02T06:15:08;11.80;;;6.50;;
8610;SDS011;4343;53.648;10.098;2023-07-02T06:17:34;12.48;;;6.20;;
8610;SDS011;4343;53.648;10.098;2023-07-02T06:19:59;13.45;;;6.38;;
8610;SDS011;4343;53.648;10.098;2023-07-02T06:22:27;15.23;;;7.32;;
8610;SDS011;4343;53.648;10.098;2023-07-02T06:24:53;12.82;;;6.60;;
8610;SDS011;4343;53.648;10.098;2023-07-02T06:27:18;15.98;;;7.53;;
8610;SDS011;4343;53.648;10.098;2023-07-02T06:29:44;16.20;;;7.15;;
8610;SDS011;4343;53.648;10.098;2023-07-02T06:32:10;20.65;;;7.82;;
8610;SDS011;4343;53.648;10.098;2023-07-02T06:34:35;15.55;;;6.75;;
8610;SDS011;4343;53.648;10.098;2023-07-02T06:37:01;11.52;;;7.22;;
8610;SDS011;4343;53.648;10.098;2023-07-02T06:39:26;15.48;;;7.10;;
8610;SDS011;4343;53.648;10.098;2023-07-02T06:41:52;11.65;;;6.47;;
8610;SDS011;4343;53.648;10.098;2023-07-02T06:44:17;16.48;;;7.03;;
8610;SDS011;4343;53.648;10.098;2023-07-02T06:46:45;15.95;;;6.03;;
8610;SDS011;4343;53.648;10.098;2023-07-02T06:49:11;14.13;;;7.25;;
8610;SDS011;4343;53.648;10.098;2023-07-02T06:51:36;12.70;;;6.75;;
8610;SDS011;4343;53.648;10.098;2023-07-02T06:54:02;13.02;;;7.50;;
8610;SDS011;4343;53.648;10.098;2023-07-02T06:56:28;16.27;;;7.55;;
8610;SDS011;4343;53.648;10.098;2023-07-02T06:58:53;12.45;;;7.82;;
8610;SDS011;4343;53.648;10.098;2023-07-02T07:01:19;16.52;;;7.25;;
8610;SDS011;4343;53.648;10.098;2023-07-02T07:03:45;12.38;;;6.63;;
8610;SDS011;4343;53.648;10.098;2023-07-02T07:06:11;18.45;;;6.97;;
8610;SDS011;4343;53.648;10.098;2023-07-02T07:08:37;15.85;;;7.47;;
8610;SDS011;4343;53.648;10.098;2023-07-02T07:11:03;12.15;;;6.75;;
8610;SDS011;4343;53.648;10.098;2023-07-02T07:13:29;13.85;;;7.22;;
8610;SDS011;4343;53.648;10.098;2023-07-02T07:15:54;12.05;;;7.03;;
8610;SDS011;4343;53.648;10.098;2023-07-02T07:18:20;14.63;;;7.28;;
8610;SDS011;4343;53.648;10.098;2023-07-02T07:20:46;17.40;;;7.80;;
8610;SDS011;4343;53.648;10.098;2023-07-02T07:23:11;12.15;;;6.78;;
8610;SDS011;4343;53.648;10.098;2023-07-02T07:25:37;17.98;;;7.78;;
8610;SDS011;4343;53.648;10.098;2023-07-02T07:28:02;11.63;;;6.88;;
8610;SDS011;4343;53.648;10.098;2023-07-02T07:30:28;13.73;;;7.22;;
8610;SDS011;4343;53.648;10.098;2023-07-02T07:32:53;13.13;;;8.07;;
8610;SDS011;4343;53.648;10.098;2023-07-02T07:35:20;13.10;;;7.13;;
8610;SDS011;4343;53.648;10.098;2023-07-02T07:37:46;17.20;;;7.65;;
8610;SDS011;4343;53.648;10.098;2023-07-02T07:40:12;14.95;;;7.70;;
8610;SDS011;4343;53.648;10.098;2023-07-02T07:42:38;11.00;;;7.22;;
8610;SDS011;4343;53.648;10.098;2023-07-02T07:45:04;13.50;;;6.78;;
8610;SDS011;4343;53.648;10.098;2023-07-02T07:47:30;11.43;;;7.43;;
8610;SDS011;4343;53.648;10.098;2023-07-02T07:49:56;21.23;;;7.90;;
8610;SDS011;4343;53.648;10.098;2023-07-02T07:52:21;12.13;;;7.53;;
8610;SDS011;4343;53.648;10.098;2023-07-02T07:54:47;14.13;;;7.35;;
8610;SDS011;4343;53.648;10.098;2023-07-02T07:57:12;15.93;;;8.18;;
8610;SDS011;4343;53.648;10.098;2023-07-02T07:59:38;9.32;;;6.47;;
8610;SDS011;4343;53.648;10.098;2023-07-02T08:02:04;9.23;;;6.97;;
8610;SDS011;4343;53.648;10.098;2023-07-02T08:04:30;16.75;;;7.18;;
8610;SDS011;4343;53.648;10.098;2023-07-02T08:06:55;12.93;;;7.05;;
8610;SDS011;4343;53.648;10.098;2023-07-02T08:09:21;13.77;;;7.53;;
8610;SDS011;4343;53.648;10.098;2023-07-02T08:11:48;12.25;;;6.13;;
8610;SDS011;4343;53.648;10.098;2023-07-02T08:14:13;13.35;;;7.38;;
8610;SDS011;4343;53.648;10.098;2023-07-02T08:16:39;11.63;;;7.15;;
8610;SDS011;4343;53.648;10.098;2023-07-02T08:19:05;14.15;;;6.63;;
8610;SDS011;4343;53.648;10.098;2023-07-02T08:21:30;12.38;;;7.13;;
8610;SDS011;4343;53.648;10.098;2023-07-02T08:23:56;11.63;;;6.75;;
8610;SDS011;4343;53.648;10.098;2023-07-02T08:26:22;17.70;;;7.03;;
8610;SDS011;4343;53.648;10.098;2023-07-02T08:28:48;13.23;;;7.30;;
8610;SDS011;4343;53.648;10.098;2023-07-02T08:31:13;13.20;;;5.95;;
8610;SDS011;4343;53.648;10.098;2023-07-02T08:33:39;12.63;;;6.78;;
8610;SDS011;4343;53.648;10.098;2023-07-02T08:36:05;11.18;;;6.40;;
8610;SDS011;4343;53.648;10.098;2023-07-02T08:38:30;8.25;;;5.93;;
8610;SDS011;4343;53.648;10.098;2023-07-02T08:40:56;8.95;;;6.10;;
8610;SDS011;4343;53.648;10.098;2023-07-02T08:43:23;9.52;;;6.63;;
8610;SDS011;4343;53.648;10.098;2023-07-02T08:45:51;11.73;;;6.72;;
8610;SDS011;4343;53.648;10.098;2023-07-02T08:48:18;11.10;;;6.75;;
8610;SDS011;4343;53.648;10.098;2023-07-02T08:50:48;10.32;;;6.25;;
8610;SDS011;4343;53.648;10.098;2023-07-02T08:53:14;12.60;;;6.50;;
8610;SDS011;4343;53.648;10.098;2023-07-02T08:55:40;6.82;;;6.10;;
8610;SDS011;4343;53.648;10.098;2023-07-02T08:58:05;6.93;;;5.80;;
8610;SDS011;4343;53.648;10.098;2023-07-02T09:00:31;10.48;;;6.22;;
8610;SDS011;4343;53.648;10.098;2023-07-02T09:03:10;8.15;;;5.78;;
8610;SDS011;4343;53.648;10.098;2023-07-02T09:05:52;7.18;;;5.85;;
8610;SDS011;4343;53.648;10.098;2023-07-02T09:08:27;8.68;;;5.72;;
8610;SDS011;4343;53.648;10.098;2023-07-02T09:10:53;11.30;;;5.75;;
8610;SDS011;4343;53.648;10.098;2023-07-02T09:13:19;11.45;;;6.10;;
8610;SDS011;4343;53.648;10.098;2023-07-02T09:15:45;9.50;;;4.95;;
8610;SDS011;4343;53.648;10.098;2023-07-02T09:18:14;8.32;;;4.88;;
8610;SDS011;4343;53.648;10.098;2023-07-02T09:20:41;11.68;;;5.50;;
8610;SDS011;4343;53.648;10.098;2023-07-02T09:23:07;8.32;;;4.90;;
8610;SDS011;4343;53.648;10.098;2023-07-02T09:25:39;11.57;;;5.00;;
8610;SDS011;4343;53.648;10.098;2023-07-02T09:28:15;6.90;;;4.63;;
8610;SDS011;4343;53.648;10.098;2023-07-02T09:30:49;9.63;;;5.18;;
8610;SDS011;4343;53.648;10.098;2023-07-02T09:33:25;8.35;;;4.70;;
8610;SDS011;4343;53.648;10.098;2023-07-02T09:35:52;7.68;;;4.38;;
8610;SDS011;4343;53.648;10.098;2023-07-02T09:38:18;6.65;;;4.05;;
8610;SDS011;4343;53.648;10.098;2023-07-02T09:40:53;6.43;;;4.57;;
8610;SDS011;4343;53.648;10.098;2023-07-02T09:43:19;6.70;;;4.10;;
8610;SDS011;4343;53.648;10.098;2023-07-02T09:45:47;5.95;;;4.10;;
8610;SDS011;4343;53.648;10.098;2023-07-02T09:48:13;6.78;;;4.47;;
8610;SDS011;4343;53.648;10.098;2023-07-02T09:50:47;5.68;;;4.13;;
8610;SDS011;4343;53.648;10.098;2023-07-02T09:53:13;6.43;;;4.80;;
8610;SDS011;4343;53.648;10.098;2023-07-02T09:55:39;10.43;;;4.95;;
8610;SDS011;4343;53.648;10.098;2023-07-02T09:58:08;6.68;;;5.20;;
8610;SDS011;4343;53.648;10.098;2023-07-02T10:00:34;8.82;;;4.85;;
8610;SDS011;4343;53.648;10.098;2023-07-02T10:02:59;13.48;;;5.10;;
8610;SDS011;4343;53.648;10.098;2023-07-02T10:05:29;10.18;;;5.85;;
8610;SDS011;4343;53.648;10.098;2023-07-02T10:07:56;9.48;;;5.20;;
8610;SDS011;4343;53.648;10.098;2023-07-02T10:10:29;7.70;;;4.65;;
8610;SDS011;4343;53.648;10.098;2023-07-02T10:12:56;8.20;;;4.85;;
8610;SDS011;4343;53.648;10.098;2023-07-02T10:15:25;8.07;;;4.85;;
8610;SDS011;4343;53.648;10.098;2023-07-02T10:17:58;7.60;;;4.78;;
8610;SDS011;4343;53.648;10.098;2023-07-02T10:20:33;9.70;;;4.85;;
8610;SDS011;4343;53.648;10.098;2023-07-02T10:23:06;5.05;;;3.88;;
8610;SDS011;4343;53.648;10.098;2023-07-02T10:25:33;7.30;;;4.43;;
8610;SDS011;4343;53.648;10.098;2023-07-02T10:30:42;6.65;;;3.88;;
8610;SDS011;4343;53.648;10.098;2023-07-02T10:33:11;7.60;;;4.03;;
8610;SDS011;4343;53.648;10.098;2023-07-02T10:35:39;6.30;;;4.35;;
8610;SDS011;4343;53.648;10.098;2023-07-02T10:38:25;7.97;;;4.00;;
8610;SDS011;4343;53.648;10.098;2023-07-02T10:40:54;8.45;;;4.22;;
8610;SDS011;4343;53.648;10.098;2023-07-02T10:43:27;5.00;;;3.58;;
8610;SDS011;4343;53.648;10.098;2023-07-02T10:45:54;6.55;;;3.75;;
8610;SDS011;4343;53.648;10.098;2023-07-02T10:48:20;6.60;;;3.83;;
8610;SDS011;4343;53.648;10.098;2023-07-02T10:50:46;6.05;;;3.65;;
8610;SDS011;4343;53.648;10.098;2023-07-02T10:53:18;7.57;;;4.25;;
8610;SDS011;4343;53.648;10.098;2023-07-02T10:55:44;4.13;;;3.65;;
8610;SDS011;4343;53.648;10.098;2023-07-02T10:58:10;7.13;;;3.65;;
8610;SDS011;4343;53.648;10.098;2023-07-02T11:00:46;6.43;;;3.65;;
8610;SDS011;4343;53.648;10.098;2023-07-02T11:03:16;8.25;;;4.05;;
8610;SDS011;4343;53.648;10.098;2023-07-02T11:05:49;7.13;;;3.42;;
8610;SDS011;4343;53.648;10.098;2023-07-02T11:08:15;6.72;;;3.45;;
8610;SDS011;4343;53.648;10.098;2023-07-02T11:10:41;6.95;;;3.70;;
8610;SDS011;4343;53.648;10.098;2023-07-02T11:13:17;9.70;;;3.85;;
8610;SDS011;4343;53.648;10.098;2023-07-02T11:15:43;7.65;;;3.83;;
8610;SDS011;4343;53.648;10.098;2023-07-02T11:18:12;6.07;;;3.65;;
8610;SDS011;4343;53.648;10.098;2023-07-02T11:20:40;4.53;;;3.25;;
8610;SDS011;4343;53.648;10.098;2023-07-02T11:23:22;9.82;;;3.90;;
8610;SDS011;4343;53.648;10.098;2023-07-02T11:28:24;19.50;;;3.55;;
8610;SDS011;4343;53.648;10.098;2023-07-02T11:30:51;7.10;;;3.28;;
8610;SDS011;4343;53.648;10.098;2023-07-02T11:33:16;4.35;;;3.55;;
8610;SDS011;4343;53.648;10.098;2023-07-02T11:35:43;5.03;;;3.63;;
8610;SDS011;4343;53.648;10.098;2023-07-02T11:38:09;4.65;;;3.55;;
8610;SDS011;4343;53.648;10.098;2023-07-02T11:40:38;4.97;;;3.65;;
8610;SDS011;4343;53.648;10.098;2023-07-02T11:43:03;6.30;;;3.65;;
8610;SDS011;4343;53.648;10.098;2023-07-02T11:45:30;5.05;;;3.53;;
8610;SDS011;4343;53.648;10.098;2023-07-02T11:47:56;6.15;;;3.10;;
8610;SDS011;4343;53.648;10.098;2023-07-02T11:50:21;4.90;;;3.15;;
8610;SDS011;4343;53.648;10.098;2023-07-02T11:52:47;5.70;;;3.25;;
8610;SDS011;4343;53.648;10.098;2023-07-02T11:55:12;6.50;;;3.17;;
8610;SDS011;4343;53.648;10.098;2023-07-02T11:57:38;7.20;;;3.40;;
8610;SDS011;4343;53.648;10.098;2023-07-02T12:00:04;7.65;;;3.33;;
8610;SDS011;4343;53.648;10.098;2023-07-02T12:02:39;6.55;;;3.10;;
8610;SDS011;4343;53.648;10.098;2023-07-02T12:05:05;6.63;;;3.30;;
8610;SDS011;4343;53.648;10.098;2023-07-02T12:07:31;5.20;;;3.72;;
8610;SDS011;4343;53.648;10.098;2023-07-02T12:09:56;6.32;;;3.35;;
8610;SDS011;4343;53.648;10.098;2023-07-02T12:12:22;8.45;;;3.40;;
8610;SDS011;4343;53.648;10.098;2023-07-02T12:14:47;4.28;;;2.70;;
8610;SDS011;4343;53.648;10.098;2023-07-02T12:17:13;7.22;;;2.97;;
8610;SDS011;4343;53.648;10.098;2023-07-02T12:19:39;5.75;;;3.58;;
8610;SDS011;4343;53.648;10.098;2023-07-02T12:22:05;5.05;;;2.92;;
8610;SDS011;4343;53.648;10.098;2023-07-02T12:24:31;4.93;;;3.10;;
8610;SDS011;4343;53.648;10.098;2023-07-02T12:26:56;5.53;;;3.22;;
8610;SDS011;4343;53.648;10.098;2023-07-02T12:29:22;7.78;;;3.35;;
8610;SDS011;4343;53.648;10.098;2023-07-02T12:31:47;6.22;;;3.15;;
8610;SDS011;4343;53.648;10.098;2023-07-02T12:34:13;8.02;;;3.50;;
8610;SDS011;4343;53.648;10.098;2023-07-02T12:36:38;5.30;;;3.20;;
8610;SDS011;4343;53.648;10.098;2023-07-02T12:39:04;4.90;;;3.10;;
8610;SDS011;4343;53.648;10.098;2023-07-02T12:41:29;5.82;;;2.83;;
8610;SDS011;4343;53.648;10.098;2023-07-02T12:43:56;3.45;;;3.10;;
8610;SDS011;4343;53.648;10.098;2023-07-02T12:46:21;5.55;;;3.08;;
8610;SDS011;4343;53.648;10.098;2023-07-02T12:51:12;6.15;;;3.47;;
8610;SDS011;4343;53.648;10.098;2023-07-02T12:53:38;6.68;;;3.10;;
8610;SDS011;4343;53.648;10.098;2023-07-02T12:56:05;4.82;;;3.47;;
8610;SDS011;4343;53.648;10.098;2023-07-02T12:58:30;4.53;;;2.63;;
8610;SDS011;4343;53.648;10.098;2023-07-02T13:00:56;7.40;;;2.80;;
8610;SDS011;4343;53.648;10.098;2023-07-02T13:03:21;6.22;;;3.10;;
8610;SDS011;4343;53.648;10.098;2023-07-02T13:05:48;4.47;;;2.40;;
8610;SDS011;4343;53.648;10.098;2023-07-02T13:10:40;3.88;;;2.72;;
8610;SDS011;4343;53.648;10.098;2023-07-02T13:13:05;4.70;;;2.92;;
8610;SDS011;4343;53.648;10.098;2023-07-02T13:15:31;5.68;;;2.45;;
8610;SDS011;4343;53.648;10.098;2023-07-02T13:17:56;3.55;;;2.17;;
8610;SDS011;4343;53.648;10.098;2023-07-02T13:20:22;3.08;;;2.03;;
8610;SDS011;4343;53.648;10.098;2023-07-02T13:22:48;3.47;;;2.33;;
8610;SDS011;4343;53.648;10.098;2023-07-02T13:25:13;5.47;;;1.85;;
8610;SDS011;4343;53.648;10.098;2023-07-02T13:27:39;3.67;;;2.22;;
8610;SDS011;4343;53.648;10.098;2023-07-02T13:30:05;3.97;;;2.08;;
8610;SDS011;4343;53.648;10.098;2023-07-02T13:32:31;3.13;;;2.53;;
8610;SDS011;4343;53.648;10.098;2023-07-02T13:34:56;4.25;;;2.42;;
8610;SDS011;4343;53.648;10.098;2023-07-02T13:37:22;4.30;;;2.40;;
8610;SDS011;4343;53.648;10.098;2023-07-02T13:42:13;5.22;;;2.63;;
8610;SDS011;4343;53.648;10.098;2023-07-02T13:44:39;3.75;;;2.40;;
8610;SDS011;4343;53.648;10.098;2023-07-02T13:47:05;3.35;;;2.25;;
8610;SDS011;4343;53.648;10.098;2023-07-02T13:49:31;3.58;;;2.20;;
8610;SDS011;4343;53.648;10.098;2023-07-02T13:51:57;3.13;;;2.30;;
8610;SDS011;4343;53.648;10.098;2023-07-02T13:54:23;2.95;;;1.75;;
8610;SDS011;4343;53.648;10.098;2023-07-02T13:56:49;5.10;;;2.20;;
8610;SDS011;4343;53.648;10.098;2023-07-02T13:59:15;5.03;;;2.28;;
8610;SDS011;4343;53.648;10.098;2023-07-02T14:01:42;3.58;;;1.92;;
8610;SDS011;4343;53.648;10.098;2023-07-02T14:04:08;3.38;;;2.17;;
8610;SDS011;4343;53.648;10.098;2023-07-02T14:06:33;2.92;;;2.25;;
8610;SDS011;4343;53.648;10.098;2023-07-02T14:08:59;4.40;;;1.98;;
8610;SDS011;4343;53.648;10.098;2023-07-02T14:11:25;3.08;;;2.40;;
8610;SDS011;4343;53.648;10.098;2023-07-02T14:13:52;3.05;;;2.58;;
8610;SDS011;4343;53.648;10.098;2023-07-02T14:16:18;4.65;;;2.22;;
8610;SDS011;4343;53.648;10.098;2023-07-02T14:18:44;7.20;;;2.75;;
8610;SDS011;4343;53.648;10.098;2023-07-02T14:21:09;5.93;;;3.03;;
8610;SDS011;4343;53.648;10.098;2023-07-02T14:23:35;4.75;;;2.58;;
8610;SDS011;4343;53.648;10.098;2023-07-02T14:26:01;8.57;;;3.25;;
8610;SDS011;4343;53.648;10.098;2023-07-02T14:28:26;8.48;;;2.80;;
8610;SDS011;4343;53.648;10.098;2023-07-02T14:31:00;5.18;;;2.80;;
8610;SDS011;4343;53.648;10.098;2023-07-02T14:33:28;2.45;;;2.25;;
8610;SDS011;4343;53.648;10.098;2023-07-02T14:35:55;2.60;;;2.40;;
8610;SDS011;4343;53.648;10.098;2023-07-02T14:38:21;4.75;;;2.50;;
8610;SDS011;4343;53.648;10.098;2023-07-02T14:40:48;2.92;;;2.53;;
8610;SDS011;4343;53.648;10.098;2023-07-02T14:43:14;4.20;;;2.58;;
8610;SDS011;4343;53.648;10.098;2023-07-02T14:45:44;3.08;;;2.00;;
8610;SDS011;4343;53.648;10.098;2023-07-02T14:48:12;4.53;;;2.00;;
8610;SDS011;4343;53.648;10.098;2023-07-02T14:50:42;4.60;;;2.13;;
8610;SDS011;4343;53.648;10.098;2023-07-02T14:53:09;5.88;;;2.28;;
8610;SDS011;4343;53.648;10.098;2023-07-02T14:55:35;7.63;;;2.55;;
8610;SDS011;4343;53.648;10.098;2023-07-02T14:58:00;4.25;;;2.47;;
8610;SDS011;4343;53.648;10.098;2023-07-02T15:00:26;6.15;;;2.72;;
8610;SDS011;4343;53.648;10.098;2023-07-02T15:02:51;5.03;;;2.72;;
8610;SDS011;4343;53.648;10.098;2023-07-02T15:05:17;4.53;;;3.00;;
8610;SDS011;4343;53.648;10.098;2023-07-02T15:07:42;6.82;;;2.78;;
8610;SDS011;4343;53.648;10.098;2023-07-02T15:10:08;3.80;;;2.47;;